Latest Weather Observations for Frederick Reef

IDQ60801

Issued at 10:02 pm EST Monday 8 February 2016 (issued every 30 minutes, with the page automatically refreshed every 10 minutes)

About weather observations | Map of weather stations | Latest weather observations for QLD | Other Formats
Station Details ID: 200701 Name: FREDERICK REEF Lat: -20.94 Lon: 154.40 Height: 4.9 m
Data from the previous 72 hours. | See also: Recent months for locations in Queensland
Date/Time
EST
Temp
°C
App
Temp
°C
Dew
Point
Rel
Hum
%
Delta-T
°C
Wind Press
QNH
hPa
Press
MSL
hPa
Rain
since 9 am
mm
Dir
 
Spd
km/h
Gust
km/h
Spd
kts
Gust
kts
08/10:00pm 27.9 - - - - SE 48 52 26 28 1009.2 - -
08/09:30pm 27.9 - - - - SE 48 54 26 29 1009.2 - -
08/09:00pm 27.6 - - - - SE 46 57 25 31 1009.1 1009.1 -
08/08:30pm 27.5 - - - - SE 50 54 27 29 1009.0 - -
08/08:00pm 27.4 - - - - SE 48 56 26 30 1008.6 1008.6 -
08/07:30pm 27.6 - - - - SE 50 57 27 31 1008.5 - -
08/07:00pm 27.6 - - - - SE 48 54 26 29 1008.4 1008.3 -
08/06:30pm 27.3 - - - - SSE 48 54 26 29 1008.2 - -
08/06:00pm 26.8 - - - - SSE 48 54 26 29 1008.1 1008.0 -
08/05:30pm 26.5 - - - - SE 46 56 25 30 1007.9 - -
08/05:00pm 27.2 - - - - ESE 50 56 27 30 1007.5 1007.4 -
08/04:30pm 27.8 - - - - SE 48 54 26 29 1006.9 - -
08/04:00pm 27.9 - - - - SE 48 52 26 28 1006.5 1006.5 -
08/03:30pm 28.0 - - - - SE 46 54 25 29 1006.5 - -
08/03:00pm 27.9 - - - - SE 43 50 23 27 1006.9 1006.7 -
08/02:30pm 28.3 - - - - SE 46 52 25 28 1006.6 - -
08/02:00pm 28.0 - - - - SE 44 52 24 28 1006.9 1006.7 -
08/01:30pm 28.0 - - - - SE 48 54 26 29 1007.3 - -
08/01:00pm 27.9 - - - - SE 46 52 25 28 1007.6 1007.5 -
08/12:30pm 28.1 - - - - SE 43 46 23 25 1008.2 - -
08/12:00pm 28.1 - - - - SE 41 44 22 24 1008.8 1008.7 -
08/11:30am 27.9 - - - - SE 44 50 24 27 1008.7 - -
08/11:00am 27.9 - - - - SE 43 48 23 26 1009.0 1008.8 -
08/10:30am 28.0 - - - - SE 44 50 24 27 1009.3 - -
08/10:00am 27.8 - - - - SE 44 48 24 26 1009.3 1009.2 -
08/09:30am 27.9 - - - - SE 44 48 24 26 1009.3 - -
08/09:00am 27.9 - - - - SE 44 48 24 26 1009.5 1009.4 -
08/08:30am 27.8 - - - - SE 41 46 22 25 1009.6 - -
08/08:00am 27.7 - - - - SE 41 44 22 24 1009.3 1009.2 -
08/07:30am 27.8 - - - - SE 41 44 22 24 1009.1 - -
08/07:00am 27.7 - - - - SE 39 44 21 24 1008.9 1008.8 -
08/06:30am 27.9 - - - - SE 41 46 22 25 1008.7 - -
08/06:00am 27.7 - - - - SE 44 50 24 27 1008.2 1008.2 -
08/05:30am 27.7 - - - - SE 46 50 25 27 1007.6 - -
08/05:00am 27.3 - - - - SE 44 48 24 26 1007.4 1007.4 -
08/04:30am 26.9 - - - - SE 43 48 23 26 1007.3 - -
08/04:00am 27.2 - - - - SE 43 46 23 25 1007.6 1007.4 -
08/03:30am 27.7 - - - - SE 35 41 19 22 1007.8 - -
08/03:00am 27.5 - - - - SE 35 39 19 21 1007.8 1007.7 -
08/02:30am 27.8 - - - - SE 33 35 18 19 1008.1 - -
08/02:00am 27.7 - - - - SE 32 37 17 20 1007.9 1007.9 -
08/01:30am 27.4 - - - - SE 33 37 18 20 1008.0 - -
08/01:00am 27.4 - - - - SE 33 37 18 20 1008.5 1008.2 -
08/12:30am 26.8 - - - - SE 33 37 18 20 1008.8 - -
08/12:00am 27.4 - - - - SSE 28 33 15 18 1009.1 1009.0 -
 
Date/Time
EST
Temp
°C
App
Temp
°C
Dew
Point
Rel
Hum
%
Delta-T
°C
Wind Press
QNH
hPa
Press
MSL
hPa
Rain
since 9 am
mm
Dir
 
Spd
km/h
Gust
km/h
Spd
kts
Gust
kts
07/11:30pm 27.4 - - - - S 22 26 12 14 1009.3 - -
07/11:00pm 27.0 - - - - S 24 28 13 15 1009.3 1009.2 -
07/10:30pm 27.3 - - - - S 22 26 12 14 1009.6 - -
07/10:00pm 27.3 - - - - S 26 30 14 16 1009.8 1009.6 -
07/09:30pm 27.4 - - - - S 28 30 15 16 1009.6 - -
07/09:00pm 27.5 - - - - SSW 19 20 10 11 1009.2 1009.0 -
07/08:30pm 27.5 - - - - WSW 11 17 6 9 1009.1 - -
07/08:00pm 27.7 - - - - WSW 13 15 7 8 1009.2 1009.2 -
07/07:30pm 27.7 - - - - NW 19 20 10 11 1008.8 - -
07/07:00pm 27.7 - - - - NW 22 26 12 14 1008.2 1008.2 -
07/06:30pm 28.8 - - - - WSW 6 9 3 5 1008.1 - -
07/06:00pm 28.8 - - - - SSW 13 17 7 9 1007.5 1007.5 -
07/05:30pm 29.1 - - - - W 2 6 1 3 1007.4 - -
07/05:00pm 28.9 - - - - CALM 0 4 0 2 1006.9 1006.8 -
07/04:30pm 29.5 - - - - CALM 0 6 0 3 1007.0 - -
07/04:00pm 30.2 - - - - CALM 0 7 0 4 1006.7 1006.6 -
07/03:30pm 29.6 - - - - S 2 7 1 4 1006.4 - -
07/03:00pm 29.7 - - - - S 7 7 4 4 1006.5 1006.3 -
07/02:30pm 29.6 - - - - S 7 9 4 5 1006.6 - -
07/02:00pm 30.0 - - - - SSE 4 6 2 3 1007.0 1006.8 -
07/01:30pm 30.6 - - - - CALM 0 7 0 4 1007.2 - -
07/01:00pm 29.6 - - - - CALM 0 6 0 3 1007.5 1007.3 -
07/12:30pm 29.5 - - - - CALM 0 6 0 3 1007.7 - -
07/12:00pm 29.3 - - - - CALM 0 7 0 4 1007.6 1007.6 -
07/11:30am 29.9 - - - - CALM 0 2 0 1 1008.1 - -
07/11:00am 29.6 - - - - CALM 0 4 0 2 1008.4 1008.2 -
07/10:30am 29.5 - - - - NNE 2 6 1 3 1008.3 - -
07/10:00am 29.4 - - - - CALM 0 - 0 - - 1008.4 -
07/09:30am 29.1 - - - - ENE 2 4 1 2 1008.3 - -
07/09:00am 29.1 - - - - CALM 0 4 0 2 1008.1 1008.0 -
07/08:30am 29.1 - - - - CALM 0 4 0 2 1007.8 - -
07/08:00am 29.2 - - - - CALM 0 2 0 1 1007.7 1007.6 -
07/07:30am 29.2 - - - - CALM 0 7 0 4 1007.6 - -
07/07:00am 29.2 - - - - CALM 0 6 0 3 1007.5 1007.4 -
07/06:30am 28.3 - - - - CALM 0 2 0 1 1007.2 - -
07/06:00am 28.0 - - - - CALM 0 6 0 3 1007.0 1007.0 -
07/05:30am 27.5 - - - - CALM 0 6 0 3 1006.5 - -
07/05:00am 27.5 - - - - CALM 0 0 0 0 1006.3 1006.3 -
07/04:30am 27.6 - - - - W 7 11 4 6 1006.1 - -
07/04:00am 27.9 - - - - CALM 0 2 0 1 1006.0 1006.0 -
07/03:30am 27.9 - - - - CALM 0 0 0 0 1006.0 - -
07/03:00am 27.9 - - - - CALM 0 0 0 0 1006.1 1006.0 -
07/02:30am 28.1 - - - - WSW 2 6 1 3 1006.2 - -
07/02:00am 28.2 - - - - CALM 0 7 0 4 1006.6 1006.3 -
07/01:30am 28.1 - - - - CALM 0 0 0 0 1006.8 - -
07/01:00am 28.1 - - - - CALM 0 0 0 0 1007.0 1006.9 -
07/12:30am 28.1 - - - - CALM 0 0 0 0 1007.1 - -
07/12:00am 27.9 - - - - CALM 0 0 0 0 1007.4 1007.3 -
 
Date/Time
EST
Temp
°C
App
Temp
°C
Dew
Point
Rel
Hum
%
Delta-T
°C
Wind Press
QNH
hPa
Press
MSL
hPa
Rain
since 9 am
mm
Dir
 
Spd
km/h
Gust
km/h
Spd
kts
Gust
kts
06/11:30pm 27.8 - - - - W 6 9 3 5 1007.4 - -
06/11:00pm 27.7 - - - - CALM 0 11 0 6 1007.8 1007.6 -
06/10:30pm 27.4 - - - - WSW 13 15 7 8 1007.7 - -
06/10:00pm 26.9 - - - - W 11 19 6 10 1007.7 1007.6 -
06/09:30pm 29.1 - - - - NNW 19 22 10 12 1007.4 - -
06/09:00pm 29.2 - - - - N 20 22 11 12 1007.0 1007.1 -
06/08:30pm 29.0 - - - - N 22 26 12 14 1006.6 - -
06/08:00pm 29.1 - - - - N 19 20 10 11 1006.5 1006.4 -
06/07:30pm 29.1 - - - - NNW 19 20 10 11 1006.6 - -
06/07:00pm 29.3 - - - - NW 15 15 8 8 1006.5 1006.4 -
06/06:30pm 29.1 - - - - WNW 13 15 7 8 1006.1 - -
06/06:00pm 29.4 - - - - WNW 11 13 6 7 1005.6 1005.6 -
06/05:30pm 29.3 - - - - CALM 0 6 0 3 1005.1 - -
06/05:00pm 29.5 - - - - CALM 0 4 0 2 1004.5 1004.4 -
06/04:30pm 29.7 - - - - CALM 0 6 0 3 1003.9 - -
06/04:00pm 29.4 - - - - CALM 0 15 0 8 1003.8 1003.6 -
06/03:30pm 29.1 - - - - NNW 19 20 10 11 1003.6 - -
06/03:00pm 29.0 - - - - N 22 24 12 13 1003.9 1003.7 -
06/02:30pm 29.0 - - - - N 20 28 11 15 1004.1 - -
06/02:00pm 29.0 - - - - N 20 28 11 15 1004.6 1004.3 -
06/01:30pm 29.5 - - - - N 20 24 11 13 1004.9 - -
06/01:00pm 29.5 - - - - N 26 28 14 15 1005.1 1005.0 -
06/12:30pm 29.5 - - - - N 22 26 12 14 1005.4 - -
06/12:00pm 29.6 - - - - N 22 26 12 14 1006.0 1005.8 -
06/11:30am 29.9 - - - - N 19 26 10 14 1006.2 - -
06/11:00am 29.9 - - - - CALM 0 22 0 12 1006.4 1006.3 -
06/10:30am 29.8 - - - - CALM 0 26 0 14 1006.5 - -
06/10:00am 29.6 - - - - CALM 0 24 0 13 1006.1 1006.1 -
06/09:30am 29.4 - - - - CALM 0 6 0 3 1006.3 - -
06/09:00am 29.5 - - - - CALM 0 4 0 2 1006.0 1005.8 -
06/08:30am 29.1 - - - - CALM 0 6 0 3 1006.1 - -
06/08:00am 29.3 - - - - CALM 0 6 0 3 1005.9 1005.9 -
06/07:30am 29.3 - - - - CALM 0 4 0 2 1005.6 - -
06/07:00am 29.1 - - - - N 2 6 1 3 1005.4 1005.4 -
06/06:30am 28.6 - - - - N 2 6 1 3 1005.2 - -
06/06:00am 28.6 - - - - N 24 28 13 15 1004.8 1004.7 -
06/05:30am 28.2 - - - - N 24 26 13 14 1004.2 - -
06/05:00am 28.3 - - - - NNW 22 24 12 13 1003.8 1003.8 -
06/04:30am 28.5 - - - - WNW 24 26 13 14 1003.5 - -
06/04:00am 28.5 - - - - WNW 19 20 10 11 1003.3 1003.2 -
06/03:30am 28.3 - - - - WNW 17 20 9 11 1003.4 - -
06/03:00am 28.4 - - - - WNW 17 20 9 11 1003.3 1003.2 -
06/02:30am 28.7 - - - - WNW 17 20 9 11 1003.3 - -
06/02:00am 28.4 - - - - WNW 11 13 6 7 1003.4 1003.2 -
06/01:30am 28.3 - - - - WNW 11 13 6 7 1003.5 - -
06/01:00am 28.4 - - - - W 9 9 5 5 1003.6 1003.5 -
06/12:30am 28.5 - - - - WNW 11 13 6 7 1004.0 - -
06/12:00am 28.5 - - - - W 17 19 9 10 1004.7 1004.5 -
 
Date/Time
EST
Temp
°C
App
Temp
°C
Dew
Point
Rel
Hum
%
Delta-T
°C
Wind Press
QNH
hPa
Press
MSL
hPa
Rain
since 9 am
mm
Dir
 
Spd
km/h
Gust
km/h
Spd
kts
Gust
kts
05/11:30pm 28.5 - - - - W 17 19 9 10 1005.1 - -
05/11:00pm 28.7 - - - - W 17 19 9 10 1005.5 1005.3 -
05/10:30pm 28.6 - - - - WNW 17 19 9 10 1005.5 - -

Other Formats:

Comma delimited format used in spreadsheet applications
http://www.bom.gov.au/fwo/IDQ60801/IDQ60801.94393.axf

JavaScript Object Notation format (JSON) in row-major order
http://www.bom.gov.au/fwo/IDQ60801/IDQ60801.94393.json